SBI8653 UHHH-UHWW
Flight info
| Callsign | SBI8653 |
|---|---|
| Flight time | N/A |
| Altitude | 38000 |
| Route | ARDEL2U ARDEL B355 BG/K0680F220 G714 DAGES DAGES2M |
| Aircraft | A20N/M-SDE2E3FGHIRWXY/LB1 |
Departure
| Time | 2026-04-10 15:38 |
|---|---|
| Airport | Khabarovsk Novy Airport (UHHH) |
Arrival
| Time | N/A |
|---|---|
| Airport | Vladivostok International Airport (UHWW) |
| Time | Latitude | Longitude | Altitude | Speed | Heading |
|---|---|---|---|---|---|
| 2026-04-10 15:16 | 48.52398 | 135.17403 | 266 ft | 0 kts | 134° |
| 2026-04-10 15:33 | 48.52393 | 135.17412 | 266 ft | 3 kts | 130° |
| 2026-04-10 15:33 | 48.52384 | 135.17465 | 264 ft | 6 kts | 82° |
| 2026-04-10 15:34 | 48.52400 | 135.17528 | 264 ft | 7 kts | 72° |
| 2026-04-10 15:34 | 48.52393 | 135.17604 | 262 ft | 9 kts | 125° |
| 2026-04-10 15:34 | 48.52350 | 135.17683 | 259 ft | 0 kts | 131° |
| 2026-04-10 15:36 | 48.52350 | 135.17685 | 258 ft | 1 kts | 131° |
| 2026-04-10 15:37 | 48.52332 | 135.17911 | 253 ft | 0 kts | 44° |
| 2026-04-10 15:37 | 48.52338 | 135.17918 | 253 ft | 13 kts | 44° |
| 2026-04-10 15:38 | 48.54938 | 135.21109 | 1572 ft | 158 kts | 10° |
| 2026-04-10 15:39 | 48.55952 | 135.20558 | 2270 ft | 170 kts | 320° |
| 2026-04-10 15:39 | 48.56503 | 135.18870 | 2770 ft | 191 kts | 282° |
| 2026-04-10 15:39 | 48.56722 | 135.16817 | 3284 ft | 207 kts | 278° |
| 2026-04-10 15:39 | 48.56945 | 135.14728 | 3820 ft | 220 kts | 279° |
| 2026-04-10 15:40 | 48.57221 | 135.12358 | 4368 ft | 239 kts | 281° |
| 2026-04-10 15:40 | 48.57549 | 135.09787 | 4914 ft | 259 kts | 281° |
| 2026-04-10 15:40 | 48.57912 | 135.07069 | 5561 ft | 272 kts | 282° |
| 2026-04-10 15:40 | 48.58300 | 135.04199 | 6175 ft | 285 kts | 283° |
| 2026-04-10 15:41 | 48.58703 | 135.01245 | 7034 ft | 289 kts | 283° |
| 2026-04-10 15:41 | 48.59110 | 134.98291 | 7890 ft | 292 kts | 282° |
| 2026-04-10 15:41 | 48.59527 | 134.95265 | 8726 ft | 296 kts | 282° |
| 2026-04-10 15:41 | 48.59914 | 134.92227 | 9535 ft | 300 kts | 275° |
| 2026-04-10 15:42 | 48.59689 | 134.89101 | 10174 ft | 306 kts | 246° |
| 2026-04-10 15:42 | 48.58493 | 134.86447 | 10724 ft | 310 kts | 218° |
| 2026-04-10 15:42 | 48.56710 | 134.84940 | 11457 ft | 307 kts | 192° |
| 2026-04-10 15:42 | 48.54637 | 134.84561 | 12306 ft | 305 kts | 180° |
| 2026-04-10 15:43 | 48.52520 | 134.84402 | 13107 ft | 309 kts | 180° |
| 2026-04-10 15:43 | 48.50376 | 134.84216 | 13926 ft | 312 kts | 181° |